Time;durP1;ratioP1;P1;durP2;ratioP2;P2;SDS_P1;SDS_P2;PMS_P1;PMS_P2;Temp;Humidity;BMP_temperature;BMP_pressure;BME280_temperature;BME280_humidity;BME280_pressure;Samples;Min_cycle;Max_cycle;Signal;HPM_P1;HPM_P2
2022/01/27 00:01:01;;;;;;;28.88;12.27;;;2.70;99.90;;;;;;4959619;28;20030;-71
2022/01/27 00:03:32;;;;;;;26.83;13.32;;;2.60;99.90;;;;;;4961892;28;20026;-71
2022/01/27 00:06:06;;;;;;;30.90;13.15;;;2.60;99.90;;;;;;4955433;28;20033;-71
2022/01/27 00:08:44;;;;;;;28.42;13.45;;;2.60;99.90;;;;;;4963470;28;20479;-69
2022/01/27 00:11:18;;;;;;;28.60;12.55;;;2.60;99.90;;;;;;4960091;28;20033;-70
2022/01/27 00:13:48;;;;;;;29.15;12.85;;;2.60;99.90;;;;;;4962430;28;20038;-71
2022/01/27 00:16:18;;;;;;;34.38;14.13;;;2.60;99.90;;;;;;4961062;28;20131;-71
2022/01/27 00:18:46;;;;;;;31.33;13.18;;;2.60;99.90;;;;;;4965655;28;20404;-71
2022/01/27 00:21:13;;;;;;;29.50;12.68;;;2.60;99.90;;;;;;4959645;28;20445;-71
2022/01/27 00:23:41;;;;;;;31.45;12.95;;;2.70;99.90;;;;;;4963342;28;20015;-70
2022/01/27 00:26:08;;;;;;;29.88;13.02;;;2.70;99.90;;;;;;4962061;28;20022;-71
2022/01/27 00:28:34;;;;;;;26.45;13.02;;;2.80;99.90;;;;;;4962840;28;20101;-72
2022/01/27 00:30:59;;;;;;;27.97;13.80;;;2.70;99.90;;;;;;4956304;28;20134;-71
2022/01/27 00:33:25;;;;;;;30.00;13.10;;;2.80;99.90;;;;;;4960868;28;20297;-71
2022/01/27 00:35:51;;;;;;;29.60;13.03;;;2.80;99.90;;;;;;4963286;28;20026;-71
2022/01/27 00:38:17;;;;;;;32.77;14.23;;;2.80;99.90;;;;;;4955329;28;20031;-72
2022/01/27 00:40:44;;;;;;;33.33;14.33;;;2.80;99.90;;;;;;4965519;28;20022;-69
2022/01/27 00:43:10;;;;;;;30.48;13.77;;;2.80;99.90;;;;;;4964279;28;20523;-72
2022/01/27 00:45:36;;;;;;;33.40;14.20;;;2.70;99.90;;;;;;4961692;28;20047;-71
2022/01/27 00:48:04;;;;;;;30.15;13.40;;;2.70;99.90;;;;;;4962005;28;20073;-71
2022/01/27 00:50:33;;;;;;;26.70;13.07;;;2.60;99.90;;;;;;4960052;28;20153;-71
2022/01/27 00:53:01;;;;;;;29.38;12.48;;;2.60;99.90;;;;;;4952811;28;20077;-72
2022/01/27 00:55:32;;;;;;;27.40;12.15;;;2.60;99.90;;;;;;4959911;28;20110;-71
2022/01/27 01:00:30;;;;;;;35.70;13.20;;;2.50;99.90;;;;;;4960857;28;20030;-72
2022/01/27 01:03:02;;;;;;;31.77;14.45;;;2.50;99.90;;;;;;4963781;28;20023;-72
2022/01/27 01:06:04;;;;;;;31.15;13.50;;;2.50;99.90;;;;;;4965102;28;20022;-70
2022/01/27 01:16:08;;;;;;;36.17;14.38;;;2.50;99.90;;;;;;4957689;28;20026;-71
2022/01/27 01:18:48;;;;;;;30.73;13.45;;;2.50;99.90;;;;;;4964421;28;20836;-71
2022/01/27 01:32:40;;;;;;;33.70;14.50;;;2.60;99.90;;;;;;4923510;29;20027;-71
2022/01/27 01:35:08;;;;;;;31.88;15.38;;;2.60;99.90;;;;;;4956890;28;20061;-71
2022/01/27 01:37:38;;;;;;;33.42;15.02;;;2.50;99.90;;;;;;4960683;28;20029;-71
2022/01/27 01:40:07;;;;;;;32.05;14.43;;;2.50;99.90;;;;;;4956407;28;20019;-72
2022/01/27 01:42:33;;;;;;;36.90;14.73;;;2.50;99.90;;;;;;4956902;28;20018;-72
2022/01/27 01:45:05;;;;;;;35.13;15.80;;;2.50;99.90;;;;;;4962056;28;20023;-77
2022/01/27 01:47:30;;;;;;;32.88;14.60;;;2.50;99.90;;;;;;4964018;28;20038;-73
2022/01/27 01:49:57;;;;;;;34.60;14.20;;;2.50;99.90;;;;;;4963094;28;20031;-72
2022/01/27 01:52:23;;;;;;;37.60;14.90;;;2.60;99.90;;;;;;4967730;28;20708;-72
2022/01/27 01:54:49;;;;;;;38.97;14.10;;;2.50;99.90;;;;;;4968834;28;20061;-69
2022/01/27 01:57:15;;;;;;;38.57;16.47;;;2.50;99.90;;;;;;4962750;28;21146;-69
2022/01/27 01:59:41;;;;;;;44.88;16.85;;;2.50;99.90;;;;;;4965882;28;20035;-69
2022/01/27 02:02:08;;;;;;;39.23;15.37;;;2.50;99.90;;;;;;4958156;28;20062;-69
2022/01/27 02:04:34;;;;;;;34.58;15.10;;;2.50;99.90;;;;;;4965316;28;20261;-71
2022/01/27 02:07:03;;;;;;;34.43;13.90;;;2.50;99.90;;;;;;4961438;28;20046;-71
2022/01/27 02:20:12;;;;;;;35.13;15.05;;;2.50;99.90;;;;;;4963098;28;20030;-71
2022/01/27 02:22:39;;;;;;;35.70;15.88;;;2.50;99.90;;;;;;4968841;28;20025;-69
2022/01/27 02:25:05;;;;;;;33.20;14.98;;;2.50;99.90;;;;;;4963019;28;20042;-69
2022/01/27 02:27:33;;;;;;;35.88;14.45;;;2.50;99.90;;;;;;4967226;28;20025;-69
2022/01/27 02:29:59;;;;;;;35.40;14.45;;;2.50;99.90;;;;;;4960557;28;20038;-69
2022/01/27 02:32:25;;;;;;;36.23;15.70;;;2.50;99.90;;;;;;4964059;28;20042;-69
2022/01/27 02:34:52;;;;;;;37.13;14.73;;;2.50;99.90;;;;;;4960770;28;20479;-70
2022/01/27 02:37:18;;;;;;;31.45;14.63;;;2.50;99.90;;;;;;4959319;28;20061;-70
2022/01/27 02:39:45;;;;;;;35.90;14.77;;;2.60;99.90;;;;;;4970286;28;20026;-71
2022/01/27 02:42:33;;;;;;;43.10;15.82;;;2.50;99.90;;;;;;4962856;28;20056;-70
2022/01/27 02:45:13;;;;;;;34.17;14.90;;;2.50;99.90;;;;;;4966275;28;20031;-71
2022/01/27 02:47:39;;;;;;;37.75;14.95;;;2.50;99.90;;;;;;4963690;28;20031;-70
2022/01/27 02:50:06;;;;;;;30.83;14.13;;;2.50;99.90;;;;;;4962729;28;20018;-72
2022/01/27 02:52:32;;;;;;;29.88;12.98;;;2.50;99.90;;;;;;4965894;28;20038;-70
2022/01/27 02:54:57;;;;;;;28.97;14.03;;;2.60;99.90;;;;;;4959958;28;20057;-70
2022/01/27 02:57:24;;;;;;;32.20;14.50;;;2.60;99.90;;;;;;4964886;28;21486;-70
2022/01/27 02:59:51;;;;;;;39.45;14.90;;;2.60;99.90;;;;;;4966417;28;20033;-71
2022/01/27 03:02:17;;;;;;;;;;;2.60;99.90;;;;;;4958168;28;20109;-70
2022/01/27 03:04:43;;;;;;;30.58;12.80;;;2.60;99.90;;;;;;4962984;28;19913;-70
2022/01/27 03:07:10;;;;;;;33.40;13.60;;;2.50;99.90;;;;;;4958942;28;20023;-70
2022/01/27 03:09:36;;;;;;;33.80;15.02;;;2.50;99.90;;;;;;4970871;28;20041;-70
2022/01/27 03:12:07;;;;;;;37.92;14.45;;;2.50;99.90;;;;;;4957574;28;20089;-71
2022/01/27 03:14:34;;;;;;;37.20;14.20;;;2.50;99.90;;;;;;4964787;28;20026;-71
2022/01/27 03:17:02;;;;;;;35.97;13.23;;;2.50;99.90;;;;;;4956360;28;20590;-71
2022/01/27 03:19:28;;;;;;;36.58;15.15;;;2.50;99.90;;;;;;4966356;28;20027;-70
2022/01/27 03:21:55;;;;;;;32.40;13.77;;;2.60;99.90;;;;;;4964100;28;20061;-71
2022/01/27 03:24:24;;;;;;;;;;;2.60;99.90;;;;;;4965585;28;20015;-71
2022/01/27 03:26:51;;;;;;;34.10;13.38;;;2.60;99.90;;;;;;4962838;28;19906;-71
2022/01/27 03:29:19;;;;;;;34.10;14.63;;;2.50;99.90;;;;;;4958983;28;20019;-73
2022/01/27 03:31:45;;;;;;;31.85;14.05;;;2.50;99.90;;;;;;4964239;28;20053;-72
2022/01/27 03:34:13;;;;;;;31.10;12.95;;;2.50;99.90;;;;;;4958028;28;20109;-71
2022/01/27 03:36:39;;;;;;;33.92;14.02;;;2.50;99.90;;;;;;4959918;28;20050;-71
2022/01/27 03:39:05;;;;;;;31.13;13.75;;;2.50;99.90;;;;;;4962182;28;20033;-69
2022/01/27 03:41:34;;;;;;;33.55;13.15;;;2.50;99.90;;;;;;4972096;28;20034;-70
2022/01/27 03:44:00;;;;;;;29.60;13.27;;;2.50;99.90;;;;;;4963097;28;20109;-71
2022/01/27 03:46:26;;;;;;;34.55;14.43;;;2.50;99.90;;;;;;4969688;28;20054;-71
2022/01/27 03:48:52;;;;;;;36.57;16.47;;;2.50;99.90;;;;;;4964858;28;20082;-73
2022/01/27 03:51:18;;;;;;;34.77;13.87;;;2.50;99.90;;;;;;4959069;28;20081;-70
2022/01/27 03:53:45;;;;;;;;;;;2.50;99.90;;;;;;4964830;28;20036;-70
2022/01/27 03:56:11;;;;;;;33.75;13.93;;;2.40;99.90;;;;;;4961876;28;19929;-70
2022/01/27 03:58:37;;;;;;;39.33;14.77;;;2.40;99.90;;;;;;4965790;28;20030;-71
2022/01/27 04:01:04;;;;;;;33.80;15.00;;;2.40;99.90;;;;;;4962255;28;20018;-70
2022/01/27 04:03:32;;;;;;;34.97;14.75;;;2.40;99.90;;;;;;4966012;28;20011;-70
2022/01/27 04:06:05;;;;;;;31.85;13.77;;;2.50;99.90;;;;;;4957442;28;20022;-71
2022/01/27 04:08:31;;;;;;;28.73;12.52;;;2.50;99.90;;;;;;4959145;28;20027;-71
2022/01/27 04:10:57;;;;;;;33.58;13.68;;;2.50;99.90;;;;;;4967293;28;20073;-71
2022/01/27 04:13:23;;;;;;;35.70;13.83;;;2.50;99.90;;;;;;4961107;28;21075;-72
2022/01/27 04:15:48;;;;;;;29.47;13.10;;;2.50;99.90;;;;;;4967391;28;20023;-71
2022/01/27 04:18:14;;;;;;;31.97;13.77;;;2.50;99.90;;;;;;4955589;28;20979;-70
2022/01/27 04:20:41;;;;;;;33.10;12.97;;;2.50;99.90;;;;;;4963573;28;20017;-70
2022/01/27 04:23:08;;;;;;;33.42;12.90;;;2.60;99.90;;;;;;4961683;28;20459;-68
2022/01/27 04:25:36;;;;;;;31.90;13.68;;;2.50;99.90;;;;;;4960309;28;20060;-72
2022/01/27 04:28:06;;;;;;;34.83;13.75;;;2.50;99.90;;;;;;4956438;28;20022;-72
2022/01/27 04:30:33;;;;;;;31.45;13.10;;;2.50;99.90;;;;;;4961489;28;20014;-71
2022/01/27 04:33:02;;;;;;;29.48;13.52;;;2.50;99.90;;;;;;4959256;28;20042;-71
2022/01/27 04:35:32;;;;;;;33.58;13.55;;;2.50;99.90;;;;;;4960456;28;20026;-71
2022/01/27 04:40:35;;;;;;;31.17;11.90;;;2.40;99.90;;;;;;4959520;28;20712;-72
2022/01/27 04:43:12;;;;;;;30.85;12.85;;;2.40;99.90;;;;;;4967044;28;20484;-71
2022/01/27 04:45:49;;;;;;;31.38;13.52;;;2.40;99.90;;;;;;4963967;28;20026;-68
2022/01/27 04:48:18;;;;;;;30.20;11.88;;;2.40;99.90;;;;;;4960501;28;20035;-71
2022/01/27 04:50:44;;;;;;;27.77;12.80;;;2.40;99.90;;;;;;4965522;28;20030;-71
2022/01/27 04:53:35;;;;;;;28.27;12.43;;;2.30;99.90;;;;;;4961858;28;20022;-71
2022/01/27 04:55:58;;;;;;;31.75;13.95;;;2.30;99.90;;;;;;4962056;28;20058;-71
2022/01/27 04:58:31;;;;;;;33.60;14.07;;;2.30;99.90;;;;;;4957289;28;20475;-71
2022/01/27 05:00:59;;;;;;;35.47;14.45;;;2.30;99.90;;;;;;4962181;28;20026;-71
2022/01/27 05:03:37;;;;;;;32.50;13.80;;;2.30;99.90;;;;;;4961462;28;20081;-71
2022/01/27 05:06:03;;;;;;;;;;;2.20;99.90;;;;;;4959051;28;20093;-71
2022/01/27 05:08:28;;;;;;;29.95;13.90;;;2.30;99.90;;;;;;4965668;28;19910;-71
2022/01/27 05:11:00;;;;;;;29.33;14.33;;;2.30;99.90;;;;;;4961119;28;20107;-71
2022/01/27 05:13:29;;;;;;;32.63;13.02;;;2.30;99.90;;;;;;4963053;28;20038;-71
2022/01/27 05:15:55;;;;;;;29.52;12.18;;;2.30;99.90;;;;;;4960402;28;20831;-71
2022/01/27 05:18:21;;;;;;;29.70;12.20;;;2.20;99.90;;;;;;4966140;28;20042;-71
2022/01/27 05:20:47;;;;;;;31.33;12.30;;;2.20;99.90;;;;;;4961457;28;20391;-72
2022/01/27 05:23:15;;;;;;;27.30;12.23;;;2.10;99.90;;;;;;4959964;28;20034;-71
2022/01/27 05:25:41;;;;;;;29.77;12.52;;;2.10;99.90;;;;;;4956009;28;20494;-71
2022/01/27 05:28:08;;;;;;;30.67;13.97;;;2.10;99.90;;;;;;4959270;28;20034;-71
2022/01/27 05:30:34;;;;;;;;;;;2.10;99.90;;;;;;4965721;28;20106;-71
2022/01/27 05:33:00;;;;;;;30.58;12.07;;;2.10;99.90;;;;;;4967374;28;20287;-71
2022/01/27 05:35:25;;;;;;;30.73;14.10;;;2.10;99.90;;;;;;4963839;28;20037;-71
2022/01/27 05:37:51;;;;;;;28.17;13.53;;;2.10;99.90;;;;;;4960625;28;20069;-72
2022/01/27 05:40:17;;;;;;;31.10;13.60;;;2.10;99.90;;;;;;4961481;28;20035;-71
2022/01/27 05:42:43;;;;;;;36.30;14.00;;;2.10;99.90;;;;;;4961514;28;20494;-71
2022/01/27 05:45:09;;;;;;;27.67;13.53;;;2.00;99.90;;;;;;4965224;28;20014;-71
2022/01/27 05:47:34;;;;;;;33.20;13.52;;;2.00;99.90;;;;;;4963573;28;20110;-72
2022/01/27 05:50:00;;;;;;;29.77;12.63;;;2.00;99.90;;;;;;4962598;28;20496;-71
2022/01/27 05:52:26;;;;;;;36.90;14.27;;;2.00;99.90;;;;;;4966120;28;20030;-72
2022/01/27 05:54:53;;;;;;;36.13;15.33;;;2.10;99.90;;;;;;4958212;28;20563;-71
2022/01/27 05:57:18;;;;;;;35.33;14.70;;;2.10;99.90;;;;;;4961999;28;20023;-71
2022/01/27 05:59:46;;;;;;;40.93;12.70;;;2.10;99.90;;;;;;4957777;28;20033;-71
2022/01/27 06:02:11;;;;;;;32.92;13.75;;;2.20;99.90;;;;;;4964557;28;20126;-72
2022/01/27 06:04:37;;;;;;;35.17;13.67;;;2.20;99.90;;;;;;4959957;28;20152;-71
2022/01/27 06:07:05;;;;;;;35.30;14.02;;;2.10;99.90;;;;;;4966412;28;20042;-72
2022/01/27 06:09:30;;;;;;;36.17;15.23;;;2.20;99.90;;;;;;4962749;28;20031;-71
2022/01/27 06:11:56;;;;;;;30.10;13.97;;;2.20;99.90;;;;;;4960527;28;20070;-72
2022/01/27 06:14:23;;;;;;;39.53;15.23;;;2.20;99.90;;;;;;4965106;28;20106;-72
2022/01/27 06:16:48;;;;;;;;;;;2.10;99.90;;;;;;4961026;28;20362;-72
2022/01/27 06:19:14;;;;;;;33.92;14.30;;;2.10;99.90;;;;;;4966458;28;19921;-73
2022/01/27 06:21:43;;;;;;;38.37;14.70;;;2.10;99.90;;;;;;4962919;28;20037;-72
2022/01/27 06:24:09;;;;;;;36.80;15.63;;;2.00;99.90;;;;;;4958820;28;20022;-71
2022/01/27 06:26:35;;;;;;;34.55;14.85;;;2.00;99.90;;;;;;4965397;28;20023;-72
2022/01/27 06:29:01;;;;;;;35.43;14.03;;;2.00;99.90;;;;;;4964512;28;20034;-72
2022/01/27 06:31:27;;;;;;;35.60;14.77;;;2.00;99.90;;;;;;4959175;28;20034;-69
2022/01/27 06:33:55;;;;;;;39.25;15.60;;;2.00;99.90;;;;;;4962398;28;20380;-71
2022/01/27 06:36:21;;;;;;;37.72;14.55;;;2.00;99.90;;;;;;4959586;28;20498;-74
2022/01/27 06:38:48;;;;;;;37.47;14.60;;;2.00;99.90;;;;;;4964312;28;20038;-74
2022/01/27 06:41:13;;;;;;;;;;;2.00;99.90;;;;;;4964607;28;20719;-72
2022/01/27 06:43:39;;;;;;;34.80;14.82;;;2.00;99.90;;;;;;4968111;28;19906;-72
2022/01/27 06:46:05;;;;;;;39.23;16.03;;;2.00;99.90;;;;;;4963757;28;20530;-72
2022/01/27 06:48:31;;;;;;;35.47;14.27;;;1.90;99.90;;;;;;4966203;28;20647;-71
2022/01/27 06:50:56;;;;;;;39.73;16.00;;;1.90;99.90;;;;;;4963093;28;20073;-71
2022/01/27 06:53:23;;;;;;;33.20;15.23;;;2.00;99.90;;;;;;4965765;28;20022;-72
2022/01/27 06:55:52;;;;;;;44.80;16.55;;;1.90;99.90;;;;;;4970223;28;20022;-71
2022/01/27 06:58:18;;;;;;;36.45;15.48;;;2.00;99.90;;;;;;4959287;28;20027;-71
2022/01/27 07:00:45;;;;;;;40.33;16.37;;;2.00;99.90;;;;;;4968329;28;20033;-71
2022/01/27 07:03:16;;;;;;;;;;;2.00;99.90;;;;;;4962974;28;20388;-69
2022/01/27 07:05:42;;;;;;;38.33;14.95;;;2.10;99.90;;;;;;4966158;28;19906;-69
2022/01/27 07:08:08;;;;;;;37.92;16.85;;;2.20;99.90;;;;;;4963131;28;20049;-68
2022/01/27 07:10:35;;;;;;;36.07;14.87;;;2.10;99.90;;;;;;4963136;28;20062;-68
2022/01/27 07:13:00;;;;;;;37.05;15.38;;;2.20;99.90;;;;;;4962120;28;20274;-69
2022/01/27 07:15:29;;;;;;;43.83;17.47;;;2.20;99.90;;;;;;4961434;28;20038;-68
2022/01/27 07:17:54;;;;;;;34.38;15.23;;;2.30;99.90;;;;;;4986976;28;20165;-71
2022/01/27 07:20:20;;;;;;;35.27;16.30;;;2.50;99.90;;;;;;4966063;28;20555;-69
2022/01/27 07:22:46;;;;;;;39.53;15.67;;;2.70;99.90;;;;;;4965053;28;20033;-69
2022/01/27 07:25:12;;;;;;;41.43;16.90;;;3.10;99.90;;;;;;4960084;28;20185;-70
2022/01/27 07:27:38;;;;;;;38.87;16.23;;;3.60;99.90;;;;;;4963741;28;20023;-72
2022/01/27 07:30:04;;;;;;;39.70;17.27;;;4.20;99.90;;;;;;4962010;28;20301;-73
2022/01/27 07:32:31;;;;;;;35.85;15.75;;;4.80;99.90;;;;;;4959453;28;20027;-73
2022/01/27 07:34:57;;;;;;;36.42;15.38;;;5.20;99.90;;;;;;4962903;28;20026;-76
2022/01/27 07:37:24;;;;;;;34.47;15.63;;;5.60;99.90;;;;;;4961334;28;21328;-71
2022/01/27 07:39:51;;;;;;;38.95;15.73;;;6.00;98.00;;;;;;4968754;28;20031;-74
2022/01/27 07:42:17;;;;;;;34.28;16.15;;;6.00;97.70;;;;;;4959616;28;20018;-73
2022/01/27 07:44:42;;;;;;;34.23;14.93;;;6.20;96.70;;;;;;4967969;28;20023;-73
2022/01/27 07:47:08;;;;;;;36.07;16.50;;;6.40;96.40;;;;;;4964772;28;20106;-72
2022/01/27 07:49:34;;;;;;;33.90;15.23;;;6.60;95.70;;;;;;4967106;28;20030;-74
2022/01/27 07:52:01;;;;;;;31.83;16.83;;;6.50;95.50;;;;;;4962183;28;20049;-71
2022/01/27 07:54:26;;;;;;;35.72;15.23;;;6.60;95.50;;;;;;4965811;28;20034;-72
2022/01/27 07:56:52;;;;;;;35.33;15.80;;;6.50;94.70;;;;;;4969062;28;20089;-73
2022/01/27 07:59:18;;;;;;;32.90;15.93;;;6.50;95.00;;;;;;4966079;28;20022;-72
2022/01/27 08:01:45;;;;;;;33.37;15.80;;;6.50;95.20;;;;;;4966742;28;20053;-74
2022/01/27 08:04:11;;;;;;;38.42;17.20;;;6.70;94.90;;;;;;4965241;28;20019;-72
2022/01/27 08:06:38;;;;;;;36.97;15.90;;;7.00;93.50;;;;;;4957392;28;20030;-71
2022/01/27 08:09:03;;;;;;;33.70;14.77;;;7.20;93.30;;;;;;4963055;28;20034;-70
2022/01/27 08:11:29;;;;;;;34.83;16.77;;;7.40;93.00;;;;;;4963430;28;20018;-72
2022/01/27 08:13:55;;;;;;;35.43;16.90;;;7.30;91.60;;;;;;4962868;28;20065;-73
2022/01/27 08:16:21;;;;;;;34.63;16.23;;;7.10;91.90;;;;;;4963221;28;20085;-73
2022/01/27 08:18:47;;;;;;;36.80;16.10;;;7.00;92.80;;;;;;4964513;28;20424;-72
2022/01/27 08:21:13;;;;;;;36.40;16.75;;;7.10;92.70;;;;;;4967302;28;20027;-72
2022/01/27 08:23:41;;;;;;;33.92;16.30;;;7.00;92.40;;;;;;4961987;28;20019;-74
2022/01/27 08:26:11;;;;;;;36.88;15.98;;;7.00;92.70;;;;;;4967757;28;20483;-72
2022/01/27 08:28:47;;;;;;;35.70;16.60;;;6.90;92.80;;;;;;4957700;28;20160;-72
2022/01/27 08:31:15;;;;;;;35.15;15.85;;;7.10;92.20;;;;;;4962333;28;20026;-72
2022/01/27 08:33:41;;;;;;;34.00;15.90;;;7.50;91.50;;;;;;4961975;28;20732;-72
2022/01/27 08:36:08;;;;;;;33.72;15.60;;;8.00;89.00;;;;;;4966168;28;20022;-72
2022/01/27 08:38:36;;;;;;;32.00;15.10;;;8.30;86.80;;;;;;4963059;28;20076;-72
2022/01/27 08:41:02;;;;;;;31.42;14.90;;;8.80;84.30;;;;;;4960814;28;20793;-71
2022/01/27 08:43:27;;;;;;;33.57;16.07;;;9.30;81.40;;;;;;4957970;28;20098;-72
2022/01/27 08:45:53;;;;;;;28.27;15.77;;;10.30;77.30;;;;;;4969665;28;20058;-72
2022/01/27 08:48:21;;;;;;;27.55;13.82;;;11.20;68.50;;;;;;4960998;28;20029;-72
2022/01/27 08:50:57;;;;;;;30.17;15.27;;;11.50;61.70;;;;;;4971735;28;20121;-72
2022/01/27 08:53:23;;;;;;;26.83;14.30;;;11.20;63.30;;;;;;4957108;28;20057;-72
2022/01/27 08:55:49;;;;;;;28.67;14.93;;;11.30;63.20;;;;;;4969704;28;20313;-69
2022/01/27 08:58:15;;;;;;;30.40;16.17;;;11.70;61.50;;;;;;4958951;28;20057;-72
2022/01/27 09:00:41;;;;;;;31.77;16.63;;;11.90;59.90;;;;;;4967433;28;20015;-72
2022/01/27 09:03:07;;;;;;;28.70;15.17;;;12.50;59.10;;;;;;4968853;28;20022;-72
2022/01/27 09:05:32;;;;;;;28.45;14.90;;;13.00;54.10;;;;;;4960884;28;20266;-72
2022/01/27 09:07:58;;;;;;;29.80;15.53;;;13.50;52.50;;;;;;4963727;28;20398;-72
2022/01/27 09:10:27;;;;;;;30.50;15.47;;;13.80;52.00;;;;;;4959838;28;20104;-72
2022/01/27 09:12:53;;;;;;;30.45;17.13;;;13.90;50.30;;;;;;4963222;28;20273;-72
2022/01/27 09:15:19;;;;;;;31.83;17.45;;;13.70;50.90;;;;;;4959774;28;20027;-72
2022/01/27 09:17:45;;;;;;;29.57;16.63;;;13.80;50.80;;;;;;4963746;28;20035;-71
2022/01/27 09:20:12;;;;;;;30.33;15.93;;;13.70;50.00;;;;;;4959106;28;20360;-72
2022/01/27 09:22:38;;;;;;;25.63;14.77;;;13.10;50.90;;;;;;4954024;28;20258;-72
2022/01/27 09:25:12;;;;;;;28.05;15.95;;;12.70;52.30;;;;;;4968797;28;20018;-72
2022/01/27 09:27:38;;;;;;;28.35;15.13;;;12.60;53.00;;;;;;4967234;28;20053;-72
2022/01/27 09:30:04;;;;;;;29.42;15.18;;;13.20;52.30;;;;;;4960900;28;20446;-72
2022/01/27 09:32:30;;;;;;;;;;;14.10;50.20;;;;;;4960207;28;20108;-72
2022/01/27 09:34:56;;;;;;;25.40;14.70;;;14.40;47.40;;;;;;4963862;28;19961;-72
2022/01/27 09:37:21;;;;;;;27.17;14.68;;;14.10;47.90;;;;;;4961473;28;20027;-73
2022/01/27 09:39:48;;;;;;;25.77;14.13;;;13.60;47.80;;;;;;4964893;28;20046;-72
2022/01/27 09:42:14;;;;;;;21.48;12.68;;;13.10;48.90;;;;;;4965703;28;20033;-72
2022/01/27 09:44:43;;;;;;;25.27;14.90;;;12.90;50.00;;;;;;4960524;28;20026;-71
2022/01/27 09:47:14;;;;;;;23.90;13.95;;;12.90;49.40;;;;;;4963445;28;20023;-72
2022/01/27 09:49:43;;;;;;;22.75;13.20;;;12.70;49.90;;;;;;4959897;28;20563;-72
2022/01/27 09:52:10;;;;;;;22.83;13.60;;;12.30;50.20;;;;;;4970250;28;20053;-71
2022/01/27 09:54:36;;;;;;;20.13;12.63;;;11.90;52.30;;;;;;4962057;28;20811;-72
2022/01/27 09:57:04;;;;;;;20.42;11.32;;;11.90;52.20;;;;;;4963413;28;20110;-71
2022/01/27 09:59:31;;;;;;;22.58;12.07;;;12.10;51.80;;;;;;4960063;28;20023;-72
2022/01/27 10:02:00;;;;;;;22.77;13.00;;;12.40;51.00;;;;;;4963405;28;20031;-71
2022/01/27 10:04:52;;;;;;;20.05;11.90;;;12.90;49.70;;;;;;4959896;28;20019;-72
2022/01/27 10:07:35;;;;;;;21.13;12.10;;;13.60;47.80;;;;;;4956463;28;20054;-72
2022/01/27 10:10:04;;;;;;;22.38;12.02;;;13.60;47.70;;;;;;4961679;28;20081;-72
2022/01/27 10:12:35;;;;;;;19.92;11.40;;;13.90;47.00;;;;;;4970155;28;20041;-72
2022/01/27 10:15:12;;;;;;;19.25;12.25;;;14.50;46.20;;;;;;4969623;28;20030;-73
2022/01/27 10:17:58;;;;;;;20.88;11.98;;;15.40;44.00;;;;;;4960872;28;20970;-72
2022/01/27 10:20:24;;;;;;;19.08;11.70;;;15.20;42.60;;;;;;4966869;28;20043;-73
2022/01/27 10:23:32;;;;;;;19.50;11.40;;;15.10;43.50;;;;;;4970264;28;20033;-72
2022/01/27 10:26:09;;;;;;;19.40;11.75;;;15.20;43.30;;;;;;4908837;29;20032;-72
2022/01/27 10:28:49;;;;;;;18.98;11.25;;;14.90;43.80;;;;;;4912519;29;20034;-71
2022/01/27 10:31:21;;;;;;;18.88;11.55;;;15.10;42.70;;;;;;4952285;28;20015;-72
2022/01/27 10:34:03;;;;;;;17.42;11.32;;;15.10;42.60;;;;;;4968626;28;20057;-72
2022/01/27 10:36:34;;;;;;;18.83;10.88;;;15.00;42.40;;;;;;4965467;28;20019;-72
2022/01/27 10:39:09;;;;;;;18.52;11.15;;;15.20;42.60;;;;;;4967991;28;20034;-72
2022/01/27 10:41:53;;;;;;;19.80;12.00;;;15.40;41.80;;;;;;4963328;28;20015;-72
2022/01/27 10:44:19;;;;;;;20.63;11.95;;;15.10;42.10;;;;;;4963044;28;20070;-72
2022/01/27 10:47:15;;;;;;;18.50;11.75;;;14.80;42.70;;;;;;4968056;28;20673;-72
2022/01/27 10:49:46;;;;;;;17.17;11.00;;;14.90;42.30;;;;;;4961397;28;20034;-72
2022/01/27 10:52:37;;;;;;;20.40;11.38;;;15.00;42.60;;;;;;4963883;28;20081;-72
2022/01/27 10:55:07;;;;;;;20.02;11.60;;;14.60;42.50;;;;;;4967858;28;20030;-72
2022/01/27 10:57:33;;;;;;;19.35;11.18;;;13.60;44.00;;;;;;4959462;28;20078;-72
2022/01/27 11:00:15;;;;;;;16.93;10.33;;;13.50;44.80;;;;;;4966417;28;20500;-72
2022/01/27 11:02:53;;;;;;;20.15;11.25;;;13.40;44.60;;;;;;4961568;28;20097;-72
2022/01/27 11:05:20;;;;;;;17.50;10.05;;;12.90;45.70;;;;;;4965983;28;20030;-72
2022/01/27 11:07:46;;;;;;;19.10;10.43;;;12.90;46.10;;;;;;4964150;28;21397;-72
2022/01/27 11:10:14;;;;;;;16.63;10.15;;;13.10;45.70;;;;;;4968467;28;20027;-72
2022/01/27 11:12:42;;;;;;;16.45;10.07;;;13.00;46.50;;;;;;4959489;28;20062;-72
2022/01/27 11:15:13;;;;;;;20.17;10.95;;;12.60;47.70;;;;;;4968113;28;20023;-72
2022/01/27 11:17:41;;;;;;;20.40;10.27;;;12.40;47.50;;;;;;4964658;28;20105;-72
2022/01/27 11:27:50;;;;;;;17.02;9.65;;;11.60;49.50;;;;;;4967802;28;20520;-73
2022/01/27 11:30:22;;;;;;;19.60;10.00;;;11.30;50.90;;;;;;4966495;28;20057;-73
2022/01/27 11:32:59;;;;;;;16.20;9.48;;;11.20;51.30;;;;;;4963932;28;20026;-77
2022/01/27 11:35:25;;;;;;;19.67;9.93;;;11.10;51.50;;;;;;4970311;28;20710;-77
2022/01/27 11:37:56;;;;;;;15.77;8.52;;;10.60;51.40;;;;;;4966472;28;20121;-73
2022/01/27 11:40:41;;;;;;;17.48;8.88;;;10.50;53.60;;;;;;4967979;28;20025;-72
2022/01/27 11:43:12;;;;;;;17.25;9.02;;;10.50;53.00;;;;;;4963290;28;20026;-73
2022/01/27 11:45:41;;;;;;;20.67;8.13;;;10.40;52.70;;;;;;4964301;28;20034;-74
2022/01/27 11:48:14;;;;;;;16.50;8.82;;;10.30;53.40;;;;;;4967678;28;20109;-73
2022/01/27 11:50:48;;;;;;;15.10;8.45;;;10.30;52.70;;;;;;4963526;28;20019;-74
2022/01/27 11:53:29;;;;;;;16.58;8.85;;;10.20;53.10;;;;;;4968261;28;20026;-74
2022/01/27 11:55:55;;;;;;;18.25;9.70;;;10.10;54.30;;;;;;4966687;28;20027;-72
2022/01/27 11:58:22;;;;;;;15.45;8.98;;;10.10;54.50;;;;;;4963369;28;20025;-72
2022/01/27 12:01:00;;;;;;;16.20;8.88;;;10.10;54.60;;;;;;4963079;28;20873;-74
2022/01/27 12:03:26;;;;;;;15.75;8.02;;;10.00;55.00;;;;;;4963464;28;20026;-72
2022/01/27 12:06:24;;;;;;;16.25;8.95;;;10.00;55.00;;;;;;4966265;28;20038;-72
2022/01/27 12:08:50;;;;;;;;;;;9.90;55.90;;;;;;4951066;28;20037;-74
2022/01/27 12:11:46;;;;;;;16.08;8.70;;;10.00;55.30;;;;;;4968699;28;19913;-73
2022/01/27 12:14:14;;;;;;;16.27;8.98;;;10.10;55.50;;;;;;4963978;28;20045;-72
2022/01/27 12:16:53;;;;;;;17.27;8.85;;;10.00;54.90;;;;;;4961033;28;20162;-75
2022/01/27 12:19:19;;;;;;;16.65;7.97;;;10.10;55.40;;;;;;4970827;28;20109;-76
2022/01/27 12:21:51;;;;;;;12.23;7.00;;;10.20;53.70;;;;;;4962617;28;20026;-74
2022/01/27 12:24:28;;;;;;;13.88;7.55;;;10.30;52.90;;;;;;4970701;28;21120;-73
2022/01/27 12:27:07;;;;;;;12.63;6.65;;;10.30;52.80;;;;;;4968335;28;20030;-72
2022/01/27 12:29:35;;;;;;;14.80;7.00;;;10.30;52.40;;;;;;4960321;28;20050;-75
2022/01/27 12:32:24;;;;;;;13.45;7.03;;;10.50;54.70;;;;;;4967402;28;20022;-76
2022/01/27 12:34:54;;;;;;;15.45;7.07;;;10.50;56.20;;;;;;4967578;28;20034;-75
2022/01/27 12:37:35;;;;;;;12.05;6.43;;;10.60;54.50;;;;;;4964658;28;20019;-80
2022/01/27 12:40:07;;;;;;;13.02;7.25;;;10.90;53.90;;;;;;4973705;28;20671;-76
2022/01/27 12:42:37;;;;;;;12.05;7.07;;;11.00;53.00;;;;;;4961006;28;20027;-71
2022/01/27 12:45:14;;;;;;;13.77;6.93;;;11.10;50.10;;;;;;4963617;28;20042;-74
2022/01/27 12:47:49;;;;;;;13.98;6.80;;;11.00;49.50;;;;;;4957346;28;20027;-72
2022/01/27 12:50:21;;;;;;;13.27;6.82;;;10.80;50.40;;;;;;4966777;28;20160;-70
2022/01/27 12:52:51;;;;;;;13.57;6.93;;;10.70;50.50;;;;;;4956284;28;20076;-75
2022/01/27 12:55:19;;;;;;;11.80;6.70;;;10.50;50.80;;;;;;4966816;28;20034;-73
2022/01/27 12:58:03;;;;;;;15.35;6.82;;;10.30;51.10;;;;;;4957606;28;20026;-71
2022/01/27 13:00:43;;;;;;;12.80;6.72;;;10.10;52.20;;;;;;4965198;28;20448;-70
2022/01/27 13:03:10;;;;;;;14.63;6.30;;;10.10;51.80;;;;;;4967567;28;20019;-69
2022/01/27 13:05:36;;;;;;;;;;;10.00;52.60;;;;;;4965481;28;20019;-72
2022/01/27 13:08:10;;;;;;;12.95;7.03;;;10.10;52.50;;;;;;4965597;28;19909;-71
2022/01/27 13:10:38;;;;;;;11.63;6.13;;;10.10;52.30;;;;;;4962293;28;20379;-71
2022/01/27 13:13:11;;;;;;;14.60;7.30;;;10.00;52.90;;;;;;4964351;28;20039;-73
2022/01/27 13:15:36;;;;;;;12.93;7.07;;;10.00;53.20;;;;;;4959855;28;20019;-71
2022/01/27 13:18:12;;;;;;;14.20;7.10;;;10.00;53.70;;;;;;4963429;28;20023;-79
2022/01/27 13:20:43;;;;;;;15.75;7.63;;;9.90;54.30;;;;;;4960667;28;20026;-72
2022/01/27 13:25:49;;;;;;;14.50;7.22;;;10.00;54.20;;;;;;4963770;28;20046;-72
2022/01/27 13:28:20;;;;;;;13.82;7.03;;;10.10;54.30;;;;;;4964492;28;20045;-71
2022/01/27 13:30:47;;;;;;;13.15;6.63;;;10.10;54.70;;;;;;4961819;28;20106;-74
2022/01/27 13:33:15;;;;;;;14.60;6.40;;;10.00;53.80;;;;;;4968323;28;20080;-71